Terminal Aerodrome Forecast
Issued by NWS Wilmington, OH

Current Version | Previous Version | Text Only | Print | Product List | Glossary Off
Versions: 1 2 3 4 5 6 7 8 9 10 11 12 13 14 15 16 17 18 19 20 21 22 23 24 25 26 27

000
FTUS41 KILN 222300
TAFDAY
TAF
KDAY 222320Z 2300/2324 19008KT P6SM VCSH BKN050 OVC080
     FM230800 19008KT 5SM -SHRA BKN040 OVC080
     FM231200 15008KT P6SM VCSH BKN025 BKN040
     FM232100 13010G18KT 4SM -SHRA BR OVC025=

USA.gov is the U.S. government's official web portal to all federal, state and local government web resources and services.